Time;durP1;ratioP1;P1;durP2;ratioP2;P2;SDS_P1;SDS_P2;PMS_P1;PMS_P2;Temp;Humidity;BMP_temperature;BMP_pressure;BME280_temperature;BME280_humidity;BME280_pressure;Samples;Min_cycle;Max_cycle;Signal;HPM_P1;HPM_P2
2022/04/15 00:01:49;;;;;;;14.43;5.10;;;;;;;;;;5077568;28;20028;-77
2022/04/15 00:04:15;;;;;;;16.58;5.47;;;;;;;;;;5070214;28;20032;-77
2022/04/15 00:06:40;;;;;;;24.20;7.13;;;;;;;;;;5047061;28;20084;-82
2022/04/15 00:09:06;;;;;;;23.67;7.10;;;;;;;;;;5052754;28;20042;-76
2022/04/15 00:11:32;;;;;;;21.73;7.55;;;;;;;;;;5079979;28;20542;-76
2022/04/15 00:13:58;;;;;;;26.70;8.23;;;;;;;;;;5067306;28;20028;-77
2022/04/15 00:16:24;;;;;;;20.42;8.18;;;;;;;;;;5068116;28;20028;-76
2022/04/15 00:18:49;;;;;;;26.33;9.05;;;;;;;;;;5061865;28;20024;-77
2022/04/15 00:21:15;;;;;;;26.80;8.38;;;;;;;;;;5085123;28;20466;-77
2022/04/15 00:23:41;;;;;;;33.10;8.52;;;;;;;;;;5063658;28;20126;-77
2022/04/15 00:26:07;;;;;;;24.85;8.27;;;;;;;;;;5067497;28;20055;-82
2022/04/15 00:28:32;;;;;;;20.73;8.55;;;;;;;;;;5068996;28;20250;-81
2022/04/15 00:30:58;;;;;;;23.42;8.43;;;;;;;;;;5064450;28;20035;-82
2022/04/15 00:33:24;;;;;;;35.28;10.13;;;;;;;;;;5078538;28;20040;-76
2022/04/15 00:35:50;;;;;;;22.58;8.45;;;;;;;;;;5050952;28;20402;-77
2022/04/15 00:38:17;;;;;;;27.05;9.52;;;;;;;;;;5065740;28;20028;-77
2022/04/15 00:40:43;;;;;;;42.20;10.77;;;;;;;;;;5063719;28;20032;-76
2022/04/15 00:43:09;;;;;;;26.38;8.65;;;;;;;;;;5062830;28;20038;-77
2022/04/15 00:45:34;;;;;;;27.80;8.90;;;;;;;;;;5066050;28;20035;-82
2022/04/15 00:48:00;;;;;;;21.67;8.25;;;;;;;;;;5051676;28;20494;-82
2022/04/15 00:50:33;;;;;;;25.98;8.70;;;;;;;;;;5057276;28;20038;-82
2022/04/15 00:53:01;;;;;;;;;;;;;;;;;;5064174;28;20032;-77
2022/04/15 00:55:27;;;;;;;27.55;8.68;;;;;;;;;;5063906;28;19922;-76
2022/04/15 00:58:04;;;;;;;40.55;10.52;;;;;;;;;;5067556;28;20499;-77
2022/04/15 01:00:32;;;;;;;29.55;11.35;;;;;;;;;;5069305;28;20036;-76
2022/04/15 01:02:59;;;;;;;27.15;10.30;;;;;;;;;;5066946;28;20111;-76
2022/04/15 01:05:25;;;;;;;33.80;11.60;;;;;;;;;;5066755;28;20056;-77
2022/04/15 01:08:00;;;;;;;42.55;12.18;;;;;;;;;;5081704;28;20036;-77
2022/04/15 01:10:26;;;;;;;38.65;11.68;;;;;;;;;;5066284;28;20540;-77
2022/04/15 01:12:57;;;;;;;45.50;11.82;;;;;;;;;;5068935;28;20032;-76
2022/04/15 01:15:26;;;;;;;42.40;12.82;;;;;;;;;;5087559;28;20089;-76
2022/04/15 01:17:52;;;;;;;33.58;12.98;;;;;;;;;;5068694;28;20033;-76
2022/04/15 01:20:18;;;;;;;32.80;11.88;;;;;;;;;;5074054;28;20444;-77
2022/04/15 01:22:45;;;;;;;44.10;11.90;;;;;;;;;;5072726;28;21069;-77
2022/04/15 01:25:13;;;;;;;32.42;10.98;;;;;;;;;;5071368;28;20410;-77
2022/04/15 01:27:41;;;;;;;35.42;12.07;;;;;;;;;;5054530;28;20033;-76
2022/04/15 01:30:11;;;;;;;29.42;12.18;;;;;;;;;;5069235;28;20056;-77
2022/04/15 01:32:36;;;;;;;36.95;12.13;;;;;;;;;;5069500;28;20102;-81
2022/04/15 01:35:02;;;;;;;45.33;13.43;;;;;;;;;;5037642;28;20042;-82
2022/04/15 01:37:30;;;;;;;33.83;10.45;;;;;;;;;;5068675;28;20024;-76
2022/04/15 01:39:56;;;;;;;31.25;10.45;;;;;;;;;;5067503;28;20382;-76
2022/04/15 01:42:22;;;;;;;35.97;11.57;;;;;;;;;;5055251;28;20039;-76
2022/04/15 01:44:48;;;;;;;27.92;10.02;;;;;;;;;;5061536;28;20040;-76
2022/04/15 01:47:16;;;;;;;27.90;10.10;;;;;;;;;;5069043;28;20126;-76
2022/04/15 01:49:42;;;;;;;33.53;10.57;;;;;;;;;;5066331;28;20729;-77
2022/04/15 01:52:07;;;;;;;29.10;11.20;;;;;;;;;;5069996;28;20094;-77
2022/04/15 01:54:33;;;;;;;25.67;9.98;;;;;;;;;;5063347;28;20044;-76
2022/04/15 01:56:58;;;;;;;28.20;9.38;;;;;;;;;;5064104;28;20473;-76
2022/04/15 01:59:24;;;;;;;24.25;9.85;;;;;;;;;;5062861;28;20032;-76
2022/04/15 02:01:56;;;;;;;23.23;8.90;;;;;;;;;;5072362;28;20035;-78
2022/04/15 02:04:22;;;;;;;29.60;10.38;;;;;;;;;;5057098;28;20064;-77
2022/04/15 02:06:48;;;;;;;26.63;10.45;;;;;;;;;;5070771;28;20063;-76
2022/04/15 02:09:14;;;;;;;25.80;9.77;;;;;;;;;;5062255;28;20502;-76
2022/04/15 02:11:39;;;;;;;16.25;5.82;;;;;;;;;;5068186;28;20122;-76
2022/04/15 02:14:05;;;;;;;24.00;5.03;;;;;;;;;;5069133;28;20032;-76
2022/04/15 02:16:30;;;;;;;13.48;5.03;;;;;;;;;;5048062;28;20407;-76
2022/04/15 02:18:56;;;;;;;19.55;5.38;;;;;;;;;;5068557;28;20036;-76
2022/04/15 02:21:21;;;;;;;12.38;5.60;;;;;;;;;;5059871;28;20036;-77
2022/04/15 02:23:47;;;;;;;15.15;6.72;;;;;;;;;;5051962;28;20040;-76
2022/04/15 02:26:12;;;;;;;22.33;7.55;;;;;;;;;;5070620;28;20068;-76
2022/04/15 02:28:37;;;;;;;28.65;8.95;;;;;;;;;;5082607;28;20059;-76
2022/04/15 02:31:03;;;;;;;18.70;7.63;;;;;;;;;;5067169;28;20132;-77
2022/04/15 02:33:28;;;;;;;26.85;8.63;;;;;;;;;;5052812;28;20033;-77
2022/04/15 02:35:55;;;;;;;24.52;10.10;;;;;;;;;;5050952;28;20135;-76
2022/04/15 02:38:20;;;;;;;33.90;11.73;;;;;;;;;;5081642;28;20028;-76
2022/04/15 02:40:46;;;;;;;31.27;11.52;;;;;;;;;;5069802;28;20036;-76
2022/04/15 02:43:12;;;;;;;36.17;12.35;;;;;;;;;;5067362;28;20119;-77
2022/04/15 02:45:38;;;;;;;38.13;12.15;;;;;;;;;;5066721;28;20043;-76
2022/04/15 02:48:03;;;;;;;32.17;10.63;;;;;;;;;;5070644;28;20036;-76
2022/04/15 02:50:29;;;;;;;26.85;10.15;;;;;;;;;;5081264;28;20029;-76
2022/04/15 02:52:55;;;;;;;27.70;9.73;;;;;;;;;;5050486;28;20033;-77
2022/04/15 02:55:20;;;;;;;34.05;11.05;;;;;;;;;;5066274;28;20120;-76
2022/04/15 02:57:46;;;;;;;39.67;12.13;;;;;;;;;;5066186;28;20039;-77
2022/04/15 03:00:14;;;;;;;41.22;13.13;;;;;;;;;;5063290;28;20454;-77
2022/04/15 03:02:39;;;;;;;55.88;13.50;;;;;;;;;;5066372;28;20433;-77
2022/04/15 03:05:06;;;;;;;47.03;13.90;;;;;;;;;;5066832;28;20021;-76
2022/04/15 03:07:32;;;;;;;40.78;13.00;;;;;;;;;;5050645;28;20025;-77
2022/04/15 03:09:58;;;;;;;43.10;14.82;;;;;;;;;;5066879;28;20028;-76
2022/04/15 03:12:23;;;;;;;41.67;12.98;;;;;;;;;;5051479;28;20035;-77
2022/04/15 03:14:53;;;;;;;34.15;11.90;;;;;;;;;;5063873;28;20029;-81
2022/04/15 03:17:19;;;;;;;47.03;13.20;;;;;;;;;;5056336;28;20036;-81
2022/04/15 03:19:45;;;;;;;50.97;13.30;;;;;;;;;;5065014;28;20607;-81
2022/04/15 03:22:11;;;;;;;48.10;11.77;;;;;;;;;;5071816;28;20032;-82
2022/04/15 03:24:36;;;;;;;44.45;11.60;;;;;;;;;;5071271;28;20040;-82
2022/04/15 03:27:02;;;;;;;48.83;12.95;;;;;;;;;;5049661;28;20029;-81
2022/04/15 03:29:28;;;;;;;46.15;13.55;;;;;;;;;;5083260;28;20108;-81
2022/04/15 03:31:53;;;;;;;51.35;12.48;;;;;;;;;;5068990;28;20384;-82
2022/04/15 03:34:19;;;;;;;51.25;12.07;;;;;;;;;;5039501;28;20111;-81
2022/04/15 03:36:45;;;;;;;40.60;13.27;;;;;;;;;;5055048;28;20398;-82
2022/04/15 03:39:11;;;;;;;39.78;11.30;;;;;;;;;;5067640;28;20032;-81
2022/04/15 03:41:37;;;;;;;46.38;13.07;;;;;;;;;;5067384;28;20039;-77
2022/04/15 03:44:04;;;;;;;51.10;12.95;;;;;;;;;;5062395;28;20055;-76
2022/04/15 03:46:29;;;;;;;35.70;12.00;;;;;;;;;;5065701;28;20025;-76
2022/04/15 03:48:55;;;;;;;48.92;13.13;;;;;;;;;;5059056;28;20031;-76
2022/04/15 03:51:20;;;;;;;51.85;13.57;;;;;;;;;;5053369;28;20104;-76
2022/04/15 03:53:46;;;;;;;56.85;12.85;;;;;;;;;;5065188;28;20028;-76
2022/04/15 03:56:11;;;;;;;40.78;13.18;;;;;;;;;;5075946;28;20509;-76
2022/04/15 03:58:37;;;;;;;45.92;14.05;;;;;;;;;;5063967;28;20427;-76
2022/04/15 04:01:03;;;;;;;54.90;12.95;;;;;;;;;;5047810;28;20056;-77
2022/04/15 04:03:28;;;;;;;48.25;13.05;;;;;;;;;;5066582;28;20025;-76
2022/04/15 04:05:54;;;;;;;43.55;13.10;;;;;;;;;;5082253;28;20063;-76
2022/04/15 04:08:19;;;;;;;40.13;11.27;;;;;;;;;;5066417;28;20032;-76
2022/04/15 04:10:45;;;;;;;32.50;10.38;;;;;;;;;;5053119;28;20079;-76
2022/04/15 04:13:10;;;;;;;31.15;9.40;;;;;;;;;;5065797;28;20044;-77
2022/04/15 04:15:36;;;;;;;38.95;10.32;;;;;;;;;;5066338;28;20032;-76
2022/04/15 04:18:02;;;;;;;32.78;9.65;;;;;;;;;;5069030;28;20033;-77
2022/04/15 04:20:28;;;;;;;33.30;10.40;;;;;;;;;;5067185;28;20035;-76
2022/04/15 04:22:54;;;;;;;30.60;9.45;;;;;;;;;;5066387;28;20037;-81
2022/04/15 04:25:19;;;;;;;28.33;8.65;;;;;;;;;;5063815;28;20037;-81
2022/04/15 04:27:45;;;;;;;25.05;9.77;;;;;;;;;;5066494;28;20733;-76
2022/04/15 04:30:13;;;;;;;24.15;8.00;;;;;;;;;;5066287;28;20036;-76
2022/04/15 04:32:38;;;;;;;22.70;7.45;;;;;;;;;;5064438;28;20688;-77
2022/04/15 04:35:05;;;;;;;20.95;8.48;;;;;;;;;;5066094;28;20111;-77
2022/04/15 04:37:31;;;;;;;29.95;8.93;;;;;;;;;;5064980;28;20035;-76
2022/04/15 04:39:57;;;;;;;30.73;9.15;;;;;;;;;;5042680;28;20067;-76
2022/04/15 04:42:23;;;;;;;31.08;8.82;;;;;;;;;;5061410;28;20347;-77
2022/04/15 04:44:49;;;;;;;31.88;9.02;;;;;;;;;;5065302;28;20031;-76
2022/04/15 04:47:15;;;;;;;25.30;9.35;;;;;;;;;;5069810;28;20032;-77
2022/04/15 04:49:41;;;;;;;25.45;7.97;;;;;;;;;;5061905;28;20052;-76
2022/04/15 04:52:07;;;;;;;18.40;6.15;;;;;;;;;;5063774;28;20035;-76
2022/04/15 04:54:34;;;;;;;15.40;5.93;;;;;;;;;;5063215;28;20020;-76
2022/04/15 04:57:00;;;;;;;22.35;7.47;;;;;;;;;;5080075;28;20029;-76
2022/04/15 04:59:26;;;;;;;23.23;7.35;;;;;;;;;;5067007;28;20757;-76
2022/04/15 05:01:52;;;;;;;18.63;7.43;;;;;;;;;;5055674;28;20399;-77
2022/04/15 05:04:18;;;;;;;20.60;6.55;;;;;;;;;;5066547;28;20032;-82
2022/04/15 05:06:43;;;;;;;14.23;5.03;;;;;;;;;;5063802;28;20100;-81
2022/04/15 05:09:09;;;;;;;14.38;5.55;;;;;;;;;;5082610;28;20047;-81
2022/04/15 05:11:34;;;;;;;11.70;5.25;;;;;;;;;;5051202;28;20030;-76
2022/04/15 05:14:00;;;;;;;13.15;5.15;;;;;;;;;;5066095;28;20020;-76
2022/04/15 05:16:25;;;;;;;7.78;3.70;;;;;;;;;;5068740;28;20502;-76
2022/04/15 05:18:51;;;;;;;8.57;3.33;;;;;;;;;;5070760;28;20031;-76
2022/04/15 05:21:16;;;;;;;7.03;3.88;;;;;;;;;;5047564;28;20537;-76
2022/04/15 05:23:42;;;;;;;5.60;3.28;;;;;;;;;;5071637;28;20051;-81
2022/04/15 05:26:07;;;;;;;8.45;3.70;;;;;;;;;;5052387;28;20435;-82
2022/04/15 05:28:35;;;;;;;8.32;4.05;;;;;;;;;;5047857;28;20045;-82
2022/04/15 05:31:02;;;;;;;15.93;6.38;;;;;;;;;;5064083;28;20043;-81
2022/04/15 05:33:28;;;;;;;16.52;6.07;;;;;;;;;;5051889;28;20042;-76
2022/04/15 05:35:53;;;;;;;20.17;7.00;;;;;;;;;;5065873;28;20446;-76
2022/04/15 05:38:19;;;;;;;16.60;6.90;;;;;;;;;;5070694;28;20024;-76
2022/04/15 05:40:44;;;;;;;19.83;7.20;;;;;;;;;;5051806;28;20809;-76
2022/04/15 05:43:10;;;;;;;15.73;6.07;;;;;;;;;;5041807;28;20391;-81
2022/04/15 05:45:35;;;;;;;22.08;6.55;;;;;;;;;;5058964;28;20120;-81
2022/04/15 05:48:01;;;;;;;19.02;6.60;;;;;;;;;;5047369;28;20040;-81
2022/04/15 05:50:26;;;;;;;14.05;5.75;;;;;;;;;;5064534;28;20414;-81
2022/04/15 05:52:52;;;;;;;14.85;5.88;;;;;;;;;;5079700;28;20116;-76
2022/04/15 05:55:17;;;;;;;15.57;5.15;;;;;;;;;;5063554;28;20067;-76
2022/04/15 05:57:43;;;;;;;10.05;4.10;;;;;;;;;;5064501;28;20037;-76
2022/04/15 06:00:09;;;;;;;12.10;4.32;;;;;;;;;;5048742;28;20058;-76
2022/04/15 06:02:35;;;;;;;10.63;4.07;;;;;;;;;;5063121;28;20131;-76
2022/04/15 06:05:00;;;;;;;8.88;4.60;;;;;;;;;;5070079;28;20206;-76
2022/04/15 06:07:26;;;;;;;8.35;3.97;;;;;;;;;;5067960;28;20040;-76
2022/04/15 06:09:51;;;;;;;9.15;3.70;;;;;;;;;;5069313;28;20431;-82
2022/04/15 06:12:21;;;;;;;10.65;4.22;;;;;;;;;;5049469;28;20708;-81
2022/04/15 06:14:47;;;;;;;5.82;3.67;;;;;;;;;;5069872;28;20043;-81
2022/04/15 06:17:13;;;;;;;5.55;3.47;;;;;;;;;;5067245;28;20509;-82
2022/04/15 06:19:39;;;;;;;6.18;3.70;;;;;;;;;;5070095;28;20024;-81
2022/04/15 06:22:04;;;;;;;7.13;3.72;;;;;;;;;;5067882;28;20060;-81
2022/04/15 06:24:29;;;;;;;5.47;3.30;;;;;;;;;;5071218;28;20453;-81
2022/04/15 06:26:55;;;;;;;4.53;3.22;;;;;;;;;;5051444;28;20024;-77
2022/04/15 06:29:20;;;;;;;6.90;3.70;;;;;;;;;;5088033;28;20033;-76
2022/04/15 06:31:47;;;;;;;5.25;3.15;;;;;;;;;;5070604;28;20085;-76
2022/04/15 06:34:13;;;;;;;4.43;2.72;;;;;;;;;;5068907;28;20070;-76
2022/04/15 06:36:38;;;;;;;4.88;2.72;;;;;;;;;;5082434;28;20033;-76
2022/04/15 06:39:04;;;;;;;5.22;2.05;;;;;;;;;;5085974;28;20035;-76
2022/04/15 06:41:29;;;;;;;6.85;2.05;;;;;;;;;;5081584;28;20039;-76
2022/04/15 06:43:55;;;;;;;3.45;1.80;;;;;;;;;;5084715;28;20108;-76
2022/04/15 06:46:20;;;;;;;3.08;1.50;;;;;;;;;;5063238;28;20659;-75
2022/04/15 06:48:46;;;;;;;4.80;1.50;;;;;;;;;;5083983;28;20498;-76
2022/04/15 06:51:11;;;;;;;3.60;1.63;;;;;;;;;;5046423;28;20048;-76
2022/04/15 06:53:37;;;;;;;2.38;1.30;;;;;;;;;;5085465;28;20043;-76
2022/04/15 06:56:03;;;;;;;4.43;1.85;;;;;;;;;;5065452;28;20457;-76
2022/04/15 06:58:28;;;;;;;2.72;1.60;;;;;;;;;;5062530;28;20025;-76
2022/04/15 07:00:54;;;;;;;8.02;1.58;;;;;;;;;;5068940;28;20540;-76
2022/04/15 07:03:19;;;;;;;4.53;1.30;;;;;;;;;;5083048;28;20051;-77
2022/04/15 07:05:46;;;;;;;2.15;1.20;;;;;;;;;;5068594;28;20491;-76
2022/04/15 07:08:12;;;;;;;2.95;1.55;;;;;;;;;;5054572;28;20033;-76
2022/04/15 07:10:38;;;;;;;1.38;1.10;;;;;;;;;;5073692;28;20016;-76
2022/04/15 07:13:05;;;;;;;2.08;1.10;;;;;;;;;;5067364;28;20068;-75
2022/04/15 07:15:30;;;;;;;3.67;1.10;;;;;;;;;;5085040;28;20029;-76
2022/04/15 07:17:56;;;;;;;1.70;1.30;;;;;;;;;;5068864;28;20039;-76
2022/04/15 07:20:22;;;;;;;1.38;0.90;;;;;;;;;;5055151;28;20115;-76
2022/04/15 07:22:58;;;;;;;4.40;0.80;;;;;;;;;;5062962;28;20028;-76
2022/04/15 07:25:24;;;;;;;0.80;0.70;;;;;;;;;;5068987;28;20101;-76
2022/04/15 07:27:50;;;;;;;1.67;0.60;;;;;;;;;;5048613;28;20028;-77
2022/04/15 07:30:17;;;;;;;3.28;0.70;;;;;;;;;;5069305;28;20441;-76
2022/04/15 07:32:44;;;;;;;3.30;0.38;;;;;;;;;;5061912;28;20703;-76
2022/04/15 07:35:09;;;;;;;0.63;0.52;;;;;;;;;;5065739;28;20036;-79
2022/04/15 07:37:35;;;;;;;1.10;0.60;;;;;;;;;;5069704;28;20023;-80
2022/04/15 07:40:01;;;;;;;0.70;0.43;;;;;;;;;;5065894;28;20093;-80
2022/04/15 07:42:26;;;;;;;2.53;0.60;;;;;;;;;;5048424;28;20036;-80
2022/04/15 07:44:52;;;;;;;1.42;0.63;;;;;;;;;;5051604;28;20028;-80
2022/04/15 07:47:18;;;;;;;2.20;0.50;;;;;;;;;;5051245;28;20020;-81
2022/04/15 07:49:43;;;;;;;0.85;0.60;;;;;;;;;;5066707;28;20089;-74
2022/04/15 07:52:09;;;;;;;6.75;0.68;;;;;;;;;;5066075;28;20067;-75
2022/04/15 07:54:35;;;;;;;1.05;0.47;;;;;;;;;;5074413;28;20012;-80
2022/04/15 07:57:01;;;;;;;2.50;0.50;;;;;;;;;;5067151;28;20036;-81
2022/04/15 07:59:30;;;;;;;1.10;0.60;;;;;;;;;;5068074;28;20036;-80
2022/04/15 08:01:58;;;;;;;2.47;0.30;;;;;;;;;;5047301;28;20036;-80
2022/04/15 08:04:23;;;;;;;0.65;0.45;;;;;;;;;;5066049;28;20482;-74
2022/04/15 08:06:49;;;;;;;4.60;0.52;;;;;;;;;;5064784;28;20044;-74
2022/04/15 08:09:15;;;;;;;2.83;0.50;;;;;;;;;;5050048;28;20489;-74
2022/04/15 08:11:40;;;;;;;3.25;0.60;;;;;;;;;;5077515;28;20037;-74
2022/04/15 08:14:06;;;;;;;3.05;0.43;;;;;;;;;;5055961;28;20470;-75
2022/04/15 08:16:32;;;;;;;0.60;0.30;;;;;;;;;;5081763;28;20032;-75
2022/04/15 08:18:57;;;;;;;3.80;0.73;;;;;;;;;;5067338;28;20107;-75
2022/04/15 08:21:23;;;;;;;2.92;0.47;;;;;;;;;;5069105;28;20505;-75
2022/04/15 08:23:49;;;;;;;1.73;0.50;;;;;;;;;;5073948;28;20060;-75
2022/04/15 08:26:14;;;;;;;0.40;0.20;;;;;;;;;;5062180;28;20052;-80
2022/04/15 08:28:40;;;;;;;0.60;0.20;;;;;;;;;;5065270;28;20032;-79
2022/04/15 08:31:07;;;;;;;0.70;0.30;;;;;;;;;;5068303;28;20100;-80
2022/04/15 08:33:33;;;;;;;0.95;0.22;;;;;;;;;;5066098;28;20032;-79
2022/04/15 08:35:59;;;;;;;2.63;0.25;;;;;;;;;;5048547;28;20049;-79
2022/04/15 08:38:24;;;;;;;0.40;0.20;;;;;;;;;;5067443;28;20032;-80
2022/04/15 08:40:54;;;;;;;2.17;0.20;;;;;;;;;;5069052;28;20031;-80
2022/04/15 08:43:19;;;;;;;17.70;1.77;;;;;;;;;;5073878;28;20037;-79
2022/04/15 08:45:47;;;;;;;0.52;0.40;;;;;;;;;;5063270;28;20086;-80
2022/04/15 08:48:13;;;;;;;1.35;0.50;;;;;;;;;;5079816;28;20025;-80
2022/04/15 08:50:38;;;;;;;1.63;0.60;;;;;;;;;;5069591;28;20037;-80
2022/04/15 08:53:04;;;;;;;1.45;0.40;;;;;;;;;;5082617;28;20031;-74
2022/04/15 08:55:30;;;;;;;3.97;0.68;;;;;;;;;;5071250;28;20032;-75
2022/04/15 08:57:56;;;;;;;0.68;0.30;;;;;;;;;;5068722;28;20035;-75
2022/04/15 09:00:23;;;;;;;3.47;0.50;;;;;;;;;;5067422;28;20053;-75
2022/04/15 09:02:50;;;;;;;0.57;0.43;;;;;;;;;;5065049;28;20506;-76
2022/04/15 09:05:25;;;;;;;0.47;0.40;;;;;;;;;;5065869;28;20533;-75
2022/04/15 09:08:05;;;;;;;1.40;0.50;;;;;;;;;;5068700;28;20058;-75
2022/04/15 09:10:33;;;;;;;2.85;0.45;;;;;;;;;;5068165;28;20077;-75
2022/04/15 09:12:59;;;;;;;2.47;0.45;;;;;;;;;;5065232;28;20013;-76
2022/04/15 09:15:25;;;;;;;1.25;0.40;;;;;;;;;;5061446;28;20064;-75
2022/04/15 09:17:52;;;;;;;2.70;0.57;;;;;;;;;;5064959;28;20063;-75
2022/04/15 09:20:19;;;;;;;4.22;0.65;;;;;;;;;;5065508;28;20029;-75
2022/04/15 09:22:45;;;;;;;0.90;0.38;;;;;;;;;;5032123;28;20380;-74
2022/04/15 09:25:11;;;;;;;6.18;1.10;;;;;;;;;;5064897;28;20053;-75
2022/04/15 09:27:38;;;;;;;4.53;0.65;;;;;;;;;;5062226;28;20036;-74
2022/04/15 09:30:04;;;;;;;2.75;0.50;;;;;;;;;;5052543;28;20662;-75
2022/04/15 09:32:30;;;;;;;3.80;0.95;;;;;;;;;;5066027;28;20021;-75
2022/04/15 09:35:07;;;;;;;4.80;0.63;;;;;;;;;;5051176;28;20117;-75
2022/04/15 09:37:40;;;;;;;2.05;0.60;;;;;;;;;;5076692;28;20024;-75
2022/04/15 09:40:12;;;;;;;2.03;0.40;;;;;;;;;;5069697;28;20029;-76
2022/04/15 09:42:53;;;;;;;2.60;0.30;;;;;;;;;;5070528;28;20050;-76
2022/04/15 09:45:22;;;;;;;1.45;0.43;;;;;;;;;;5062055;28;20028;-75
2022/04/15 09:47:59;;;;;;;7.80;0.60;;;;;;;;;;5068872;28;20036;-76
2022/04/15 09:50:44;;;;;;;2.45;0.40;;;;;;;;;;5067177;28;20044;-75
2022/04/15 09:53:15;;;;;;;2.35;0.60;;;;;;;;;;5057403;28;20024;-76
2022/04/15 09:55:51;;;;;;;2.78;0.32;;;;;;;;;;5071843;28;20059;-76
2022/04/15 09:58:19;;;;;;;1.67;0.40;;;;;;;;;;5059883;28;20044;-75
2022/04/15 10:00:51;;;;;;;1.80;0.40;;;;;;;;;;5069542;28;20024;-75
2022/04/15 10:03:24;;;;;;;3.17;0.57;;;;;;;;;;5064886;28;20040;-75
2022/04/15 10:05:51;;;;;;;0.40;0.40;;;;;;;;;;5070355;28;20032;-75
2022/04/15 10:08:20;;;;;;;3.30;0.50;;;;;;;;;;5069315;28;20103;-75
2022/04/15 10:10:47;;;;;;;1.63;0.30;;;;;;;;;;5071003;28;20036;-75
2022/04/15 10:13:13;;;;;;;4.25;0.47;;;;;;;;;;5069184;28;20035;-75
2022/04/15 10:15:40;;;;;;;2.97;0.70;;;;;;;;;;5059198;28;20028;-77
2022/04/15 10:18:06;;;;;;;3.17;0.60;;;;;;;;;;5068668;28;20042;-75
2022/04/15 10:20:32;;;;;;;4.72;0.40;;;;;;;;;;5084719;28;20110;-76
2022/04/15 10:23:03;;;;;;;2.38;0.30;;;;;;;;;;5068681;28;20036;-76
2022/04/15 10:25:30;;;;;;;0.75;0.28;;;;;;;;;;5067244;28;20063;-75
2022/04/15 10:28:10;;;;;;;2.95;0.20;;;;;;;;;;5049918;28;20032;-75
2022/04/15 10:30:37;;;;;;;6.40;0.43;;;;;;;;;;5069324;28;20040;-75
2022/04/15 10:33:03;;;;;;;0.80;0.30;;;;;;;;;;5068664;28;20033;-75
2022/04/15 10:35:33;;;;;;;1.83;0.40;;;;;;;;;;5068169;28;20054;-75
2022/04/15 10:38:10;;;;;;;1.33;0.40;;;;;;;;;;5051604;28;20048;-75
2022/04/15 10:40:36;;;;;;;3.60;0.45;;;;;;;;;;5067868;28;20490;-75
2022/04/15 10:43:31;;;;;;;0.47;0.30;;;;;;;;;;5066406;28;20086;-75
2022/04/15 10:46:14;;;;;;;3.45;0.50;;;;;;;;;;5062735;28;20056;-75
2022/04/15 10:48:41;;;;;;;2.05;0.70;;;;;;;;;;5065541;28;20094;-75
2022/04/15 10:51:25;;;;;;;1.95;0.50;;;;;;;;;;5068280;28;20112;-75
2022/04/15 10:53:51;;;;;;;3.40;0.45;;;;;;;;;;5067591;28;20505;-80
2022/04/15 10:56:18;;;;;;;2.70;0.40;;;;;;;;;;5071430;28;20550;-80
2022/04/15 11:01:50;;;;;;;2.75;1.05;;;;;;;;;;5068316;28;20110;-80
2022/04/15 11:04:25;;;;;;;6.18;1.50;;;;;;;;;;5067655;28;20028;-80
2022/04/15 11:06:51;;;;;;;13.43;1.92;;;;;;;;;;5069635;28;20036;-80
2022/04/15 11:09:22;;;;;;;9.05;1.42;;;;;;;;;;5069132;28;20025;-80
2022/04/15 11:11:51;;;;;;;9.85;1.90;;;;;;;;;;5050862;28;20034;-80
2022/04/15 11:14:17;;;;;;;8.13;1.65;;;;;;;;;;5065755;28;20032;-80
2022/04/15 11:16:47;;;;;;;5.18;0.80;;;;;;;;;;5064144;28;20028;-80
2022/04/15 11:19:17;;;;;;;8.00;1.48;;;;;;;;;;5067572;28;20031;-80
2022/04/15 11:21:50;;;;;;;11.82;1.67;;;;;;;;;;5069440;28;20032;-80
2022/04/15 11:24:27;;;;;;;8.82;1.63;;;;;;;;;;5068800;28;20044;-75
2022/04/15 11:27:03;;;;;;;5.07;1.25;;;;;;;;;;5068282;28;20031;-75
2022/04/15 11:29:35;;;;;;;8.60;2.03;;;;;;;;;;5061378;28;20028;-75
2022/04/15 11:32:04;;;;;;;;;;;;;;;;;;5064441;28;20063;-75
2022/04/15 11:34:29;;;;;;;6.40;1.23;;;;;;;;;;5069586;28;19912;-75
2022/04/15 11:36:59;;;;;;;9.98;2.38;;;;;;;;;;5074474;28;20418;-76
2022/04/15 11:39:25;;;;;;;8.30;1.70;;;;;;;;;;5066081;28;20521;-76
2022/04/15 11:41:53;;;;;;;12.73;1.35;;;;;;;;;;5069693;28;20037;-75
2022/04/15 11:44:20;;;;;;;7.85;1.30;;;;;;;;;;5065295;28;20111;-75
2022/04/15 11:46:48;;;;;;;26.50;1.70;;;;;;;;;;5052972;28;20032;-75
2022/04/15 11:49:26;;;;;;;16.45;1.65;;;;;;;;;;5064695;28;20029;-80
2022/04/15 11:51:57;;;;;;;7.50;1.60;;;;;;;;;;5066160;28;20160;-80
2022/04/15 11:54:24;;;;;;;6.82;1.20;;;;;;;;;;5050810;28;20021;-75
2022/04/15 11:56:58;;;;;;;5.05;1.48;;;;;;;;;;5067337;28;20031;-75
2022/04/15 11:59:24;;;;;;;5.75;1.25;;;;;;;;;;5064751;28;20140;-75
2022/04/15 12:01:51;;;;;;;1.77;1.00;;;;;;;;;;5061159;28;20581;-75
2022/04/15 12:04:17;;;;;;;3.78;1.00;;;;;;;;;;5079995;28;20035;-74
2022/04/15 12:06:43;;;;;;;3.22;1.02;;;;;;;;;;5065548;28;20371;-74
2022/04/15 12:09:16;;;;;;;3.85;0.85;;;;;;;;;;5068677;28;20043;-75
2022/04/15 12:11:42;;;;;;;1.60;0.90;;;;;;;;;;5067797;28;20032;-75
2022/04/15 12:14:09;;;;;;;5.28;1.10;;;;;;;;;;5054046;28;20442;-75
2022/04/15 12:16:36;;;;;;;2.70;1.00;;;;;;;;;;5066777;28;20076;-75
2022/04/15 12:19:03;;;;;;;4.43;0.95;;;;;;;;;;5083347;28;20082;-76
2022/04/15 12:21:30;;;;;;;6.75;1.13;;;;;;;;;;5068604;28;20045;-75
2022/04/15 12:24:20;;;;;;;3.00;1.52;;;;;;;;;;5073994;28;20052;-80
2022/04/15 12:26:48;;;;;;;1.42;0.90;;;;;;;;;;5062345;28;20258;-80
2022/04/15 12:32:20;;;;;;;1.70;1.30;;;;;;;;;;5065225;28;20501;-80
2022/04/15 12:34:55;;;;;;;4.68;1.27;;;;;;;;;;5066456;28;20028;-80
2022/04/15 12:37:31;;;;;;;3.63;1.05;;;;;;;;;;5069893;28;20083;-80
2022/04/15 12:39:57;;;;;;;2.97;1.30;;;;;;;;;;5064018;28;20074;-80
2022/04/15 12:42:29;;;;;;;2.20;1.23;;;;;;;;;;5050099;28;20832;-79
2022/04/15 12:44:55;;;;;;;1.95;1.20;;;;;;;;;;5049213;28;20093;-80
2022/04/15 12:47:26;;;;;;;4.25;1.30;;;;;;;;;;5066364;28;20032;-80
2022/04/15 12:49:52;;;;;;;1.95;1.20;;;;;;;;;;5067096;28;20115;-81
2022/04/15 12:52:22;;;;;;;2.80;1.70;;;;;;;;;;5067440;28;20063;-82
2022/04/15 12:55:00;;;;;;;2.38;1.48;;;;;;;;;;5051256;28;20075;-78
2022/04/15 12:57:36;;;;;;;2.45;1.50;;;;;;;;;;5062788;28;20671;-82
2022/04/15 13:00:06;;;;;;;3.22;1.83;;;;;;;;;;5048339;28;20041;-81
2022/04/15 13:02:32;;;;;;;1.90;1.70;;;;;;;;;;5068144;28;20063;-82
2022/04/15 13:04:58;;;;;;;5.40;2.00;;;;;;;;;;5072487;28;20060;-81
2022/04/15 13:07:25;;;;;;;1.95;1.65;;;;;;;;;;5065761;28;20117;-81
2022/04/15 13:09:51;;;;;;;2.53;2.00;;;;;;;;;;5073302;28;20032;-80
2022/04/15 13:12:19;;;;;;;3.25;1.90;;;;;;;;;;5071968;28;20551;-82
2022/04/15 13:14:46;;;;;;;3.60;2.10;;;;;;;;;;5069628;28;20457;-82
2022/04/15 13:17:13;;;;;;;4.35;1.90;;;;;;;;;;5066748;28;20064;-82
2022/04/15 13:19:40;;;;;;;4.40;1.95;;;;;;;;;;5036184;28;20025;-82
2022/04/15 13:22:06;;;;;;;3.92;1.95;;;;;;;;;;5075174;28;20580;-82
2022/04/15 13:24:32;;;;;;;3.15;2.65;;;;;;;;;;5073263;28;20052;-76
2022/04/15 13:26:57;;;;;;;2.60;1.80;;;;;;;;;;5066449;28;20036;-76
2022/04/15 13:29:23;;;;;;;2.00;1.50;;;;;;;;;;5067542;28;20056;-76
2022/04/15 13:31:48;;;;;;;2.60;1.50;;;;;;;;;;5091728;28;20036;-76
2022/04/15 13:34:14;;;;;;;4.78;1.30;;;;;;;;;;5071113;28;20482;-76
2022/04/15 13:36:39;;;;;;;4.18;1.50;;;;;;;;;;5069746;28;20067;-76
2022/04/15 13:39:05;;;;;;;8.05;3.00;;;;;;;;;;5074143;28;20024;-76
2022/04/15 13:41:31;;;;;;;4.13;1.92;;;;;;;;;;5069665;28;20044;-75
2022/04/15 13:43:59;;;;;;;3.80;1.70;;;;;;;;;;5069721;28;20055;-76
2022/04/15 13:46:26;;;;;;;6.25;1.63;;;;;;;;;;5052280;28;20464;-76
2022/04/15 13:48:54;;;;;;;3.53;1.83;;;;;;;;;;5072694;28;20025;-77
2022/04/15 13:51:20;;;;;;;3.03;1.80;;;;;;;;;;5056890;28;20048;-76
2022/04/15 13:56:36;;;;;;;5.35;1.75;;;;;;;;;;5069707;28;20047;-81
2022/04/15 13:59:04;;;;;;;5.20;1.95;;;;;;;;;;5069973;28;20044;-81
2022/04/15 14:01:33;;;;;;;4.15;1.38;;;;;;;;;;5073243;28;20039;-81
2022/04/15 14:04:02;;;;;;;3.17;1.60;;;;;;;;;;5072796;28;20036;-81
2022/04/15 14:06:28;;;;;;;3.15;1.42;;;;;;;;;;5074026;28;20024;-81
2022/04/15 14:08:54;;;;;;;9.80;1.85;;;;;;;;;;5068485;28;20086;-81
2022/04/15 14:11:20;;;;;;;4.80;1.77;;;;;;;;;;5074123;28;20039;-82
2022/04/15 14:13:46;;;;;;;3.28;1.70;;;;;;;;;;5074256;28;20759;-81
2022/04/15 14:16:13;;;;;;;5.13;2.08;;;;;;;;;;5088112;28;20119;-81
2022/04/15 14:18:39;;;;;;;3.20;2.17;;;;;;;;;;5073377;28;20450;-81
2022/04/15 14:21:06;;;;;;;3.35;2.03;;;;;;;;;;5062848;28;20063;-81
2022/04/15 14:23:31;;;;;;;3.75;2.20;;;;;;;;;;5066687;28;20040;-76
2022/04/15 14:25:57;;;;;;;4.65;2.17;;;;;;;;;;5047923;28;20052;-76
2022/04/15 14:28:25;;;;;;;2.47;1.65;;;;;;;;;;5067075;28;20028;-76
2022/04/15 14:30:51;;;;;;;1.92;1.50;;;;;;;;;;5061943;28;20029;-76
2022/04/15 14:33:16;;;;;;;2.13;1.50;;;;;;;;;;5071471;28;20105;-77
2022/04/15 14:35:43;;;;;;;5.70;1.58;;;;;;;;;;5082540;28;20392;-76
2022/04/15 14:38:09;;;;;;;3.88;1.45;;;;;;;;;;5052345;28;20537;-76
2022/04/15 14:40:35;;;;;;;1.75;1.27;;;;;;;;;;5067862;28;20104;-76
2022/04/15 14:43:00;;;;;;;2.65;1.20;;;;;;;;;;5068958;28;20119;-76
2022/04/15 14:45:26;;;;;;;1.67;1.13;;;;;;;;;;5068590;28;20128;-76